createdAt,value
2022-12-16T00:02:33.521Z,99310.06
2022-12-16T00:05:42.674Z,99303.88
2022-12-16T00:08:47.195Z,99310.06
2022-12-16T00:11:50.062Z,99304.72
2022-12-16T00:14:55.080Z,99307.41
2022-12-16T00:17:57.757Z,99303.03
2022-12-16T00:21:00.699Z,99308.34
2022-12-16T00:24:03.448Z,99303.03
2022-12-16T00:27:06.112Z,99304.84
2022-12-16T00:30:11.496Z,99291.56
2022-12-16T00:33:14.164Z,99297.69
2022-12-16T00:36:16.886Z,99300.31
2022-12-16T00:39:19.615Z,99299.38
2022-12-16T00:42:22.290Z,99299.38
2022-12-16T00:45:26.348Z,99305.56
2022-12-16T00:48:29.132Z,99304.66
2022-12-16T00:51:31.799Z,99315.28
2022-12-16T00:54:34.509Z,99313.53
2022-12-16T00:57:37.186Z,99321.56
2022-12-16T01:00:41.571Z,99317.16
2022-12-16T01:03:44.720Z,99330.38
2022-12-16T01:06:48.023Z,99333.97
2022-12-16T01:09:50.696Z,99339.28
2022-12-16T01:12:54.875Z,99343.72
2022-12-16T01:16:02.473Z,99356.94
2022-12-16T01:19:05.932Z,99356.03
2022-12-16T01:22:09.139Z,99362.22
2022-12-16T01:25:14.108Z,99353.38
2022-12-16T01:28:16.785Z,99361.31
2022-12-16T01:31:22.099Z,99364.88
2022-12-16T01:34:25.105Z,99363.91
2022-12-16T01:37:27.809Z,99349.03
2022-12-16T01:40:30.949Z,99361.25
2022-12-16T01:43:36.138Z,99374.53
2022-12-16T01:46:40.994Z,99371.88
2022-12-16T01:49:48.861Z,99373.66
2022-12-16T01:52:57.344Z,99370.09
2022-12-16T01:56:01.954Z,99370.13
2022-12-16T01:59:04.993Z,99363.09
2022-12-16T02:02:10.307Z,99359.66
2022-12-16T02:05:21.480Z,99359.56
2022-12-16T02:08:24.252Z,99358.69
2022-12-16T02:11:42.863Z,99368.44
2022-12-16T02:15:00.414Z,99371.19
2022-12-16T02:18:14.322Z,99359.69
2022-12-16T02:21:31.811Z,99365.94
2022-12-16T02:25:03.957Z,99355.34
2022-12-16T02:28:12.673Z,99353.56
2022-12-16T02:31:26.939Z,99351.81
2022-12-16T02:34:38.161Z,99354.47
2022-12-16T02:37:49.138Z,99355.38
2022-12-16T02:40:57.493Z,99359.00
2022-12-16T02:44:05.420Z,99360.78
2022-12-16T02:47:09.621Z,99302.75
2022-12-16T02:50:19.718Z,99353.88
2022-12-16T02:53:22.809Z,99354.81
2022-12-16T02:56:48.573Z,99356.69
2022-12-16T02:59:58.051Z,99340.94
2022-12-16T03:03:07.573Z,99370.16
2022-12-16T03:06:14.096Z,99364.03
2022-12-16T03:09:21.994Z,99380.06
2022-12-16T03:12:25.784Z,99375.75
2022-12-16T03:15:33.714Z,99383.78
2022-12-16T03:18:42.144Z,99380.28
2022-12-16T03:21:50.351Z,99378.69
2022-12-16T03:24:53.553Z,99391.94
2022-12-16T03:28:01.933Z,99388.41
2022-12-16T03:31:15.352Z,99398.19
2022-12-16T03:34:28.594Z,99393.84
2022-12-16T03:37:37.530Z,99395.66
2022-12-16T03:40:44.121Z,99365.75
2022-12-16T03:43:48.428Z,99386.91
2022-12-16T03:46:51.449Z,99386.91
2022-12-16T03:49:55.648Z,99385.19
2022-12-16T03:52:58.984Z,99391.38
2022-12-16T03:56:02.129Z,99390.53
2022-12-16T03:59:04.910Z,99398.47
2022-12-16T04:02:07.692Z,99410.88
2022-12-16T04:05:12.510Z,99410.88
2022-12-16T04:08:15.381Z,99403.88
2022-12-16T04:11:35.539Z,99419.78
2022-12-16T04:14:55.811Z,99418.88
2022-12-16T04:18:16.108Z,99414.47
2022-12-16T04:21:37.538Z,99433.91
2022-12-16T04:24:40.347Z,99442.75
2022-12-16T04:27:46.827Z,99442.78
2022-12-16T04:30:49.580Z,99451.59
2022-12-16T04:34:09.759Z,99443.69
2022-12-16T04:37:31.157Z,99456.91
2022-12-16T04:40:51.341Z,99469.25
2022-12-16T04:44:11.594Z,99467.50
2022-12-16T04:47:31.938Z,99470.19
2022-12-16T04:50:52.119Z,99475.47
2022-12-16T04:54:13.708Z,99481.66
2022-12-16T04:57:33.811Z,99479.88
2022-12-16T05:00:53.980Z,99494.84
2022-12-16T05:04:15.856Z,99505.44
2022-12-16T05:07:38.537Z,99508.09
2022-12-16T05:11:05.773Z,99518.66
2022-12-16T05:14:26.160Z,99519.56
2022-12-16T05:17:46.315Z,99521.28
2022-12-16T05:21:06.573Z,99530.13
2022-12-16T05:24:27.158Z,99535.41
2022-12-16T05:27:49.739Z,99541.56
2022-12-16T05:31:10.505Z,99539.78
2022-12-16T05:34:31.384Z,99551.25
2022-12-16T05:37:52.437Z,99554.75
2022-12-16T05:41:12.487Z,99552.97
2022-12-16T05:44:33.944Z,99564.41
2022-12-16T05:47:54.120Z,99572.31
2022-12-16T05:51:14.484Z,99574.06
2022-12-16T05:54:39.958Z,99583.72
2022-12-16T05:58:00.372Z,99582.81
2022-12-16T06:01:22.824Z,99583.66
2022-12-16T06:04:42.923Z,99599.50
2022-12-16T06:08:09.574Z,99603.00
2022-12-16T06:11:29.565Z,99612.66
2022-12-16T06:14:49.792Z,99614.41
2022-12-16T06:18:11.195Z,99617.91
2022-12-16T06:21:31.525Z,99629.34
2022-12-16T06:24:51.817Z,99630.22
2022-12-16T06:28:12.484Z,99649.59
2022-12-16T06:31:32.636Z,99649.53
2022-12-16T06:34:54.015Z,99651.22
2022-12-16T06:38:14.215Z,99657.38
2022-12-16T06:41:34.304Z,99667.03
2022-12-16T06:44:54.527Z,99672.25
2022-12-16T06:48:14.592Z,99674.88
2022-12-16T06:51:36.001Z,99666.00
2022-12-16T06:55:04.517Z,99680.09
2022-12-16T06:58:24.917Z,99636.72
2022-12-16T07:01:45.150Z,99693.25
2022-12-16T07:05:06.552Z,99697.59
2022-12-16T07:08:34.253Z,99701.09
2022-12-16T07:11:56.702Z,99714.28
2022-12-16T07:15:27.400Z,99670.00
2022-12-16T07:18:48.782Z,99734.50
2022-12-16T07:22:09.440Z,99730.06
2022-12-16T07:25:33.480Z,99740.56
2022-12-16T07:28:53.835Z,99748.47
2022-12-16T07:32:14.162Z,99746.72
2022-12-16T07:35:37.652Z,99753.72
2022-12-16T07:39:06.217Z,99766.06
2022-12-16T07:42:30.641Z,99761.63
2022-12-16T07:45:50.919Z,99766.06
2022-12-16T07:49:11.183Z,99774.84
2022-12-16T07:52:33.790Z,99780.16
2022-12-16T07:56:00.036Z,99788.91
2022-12-16T07:59:28.962Z,99784.50
2022-12-16T08:02:52.744Z,99793.38
2022-12-16T08:06:13.049Z,99805.69
2022-12-16T08:09:36.410Z,99805.72
2022-12-16T08:12:57.204Z,99803.97
2022-12-16T08:16:19.176Z,99812.78
2022-12-16T08:19:39.422Z,99817.22
2022-12-16T08:23:00.083Z,99825.19
2022-12-16T08:26:20.815Z,99827.94
2022-12-16T08:29:45.140Z,99833.25
2022-12-16T08:33:16.587Z,99839.41
2022-12-16T08:36:39.404Z,99837.75
2022-12-16T08:40:26.153Z,99843.00
2022-12-16T08:43:39.977Z,99852.72
2022-12-16T08:47:00.153Z,99860.69
2022-12-16T08:50:24.377Z,99866.09
2022-12-16T08:53:44.538Z,99862.69
2022-12-16T08:57:04.790Z,99868.88
2022-12-16T09:00:26.536Z,99879.47
2022-12-16T09:03:46.828Z,99879.44
2022-12-16T09:07:09.648Z,99888.28
2022-12-16T09:10:32.271Z,99885.72
2022-12-16T09:14:05.648Z,99879.53
2022-12-16T09:17:29.441Z,99893.69
2022-12-16T09:21:16.602Z,99900.81
2022-12-16T09:24:38.107Z,99901.75
2022-12-16T09:28:06.723Z,99904.44
2022-12-16T09:31:26.928Z,99904.50
2022-12-16T09:34:47.207Z,99908.91
2022-12-16T09:38:08.032Z,99906.31
2022-12-16T09:41:46.201Z,99909.91
2022-12-16T09:45:22.995Z,99916.16
2022-12-16T09:48:52.412Z,99903.91
2022-12-16T09:52:18.635Z,99902.19
2022-12-16T09:55:44.184Z,99908.41
2022-12-16T09:59:11.135Z,99920.81
2022-12-16T10:02:34.161Z,99912.06
2022-12-16T10:06:06.655Z,99918.31
2022-12-16T10:09:35.053Z,99919.25
2022-12-16T10:13:05.808Z,99909.59
2022-12-16T10:16:33.774Z,99921.09
2022-12-16T10:20:10.154Z,99925.53
2022-12-16T10:23:38.963Z,99917.66
2022-12-16T10:27:10.841Z,99910.63
2022-12-16T10:30:33.553Z,99914.19
2022-12-16T10:34:04.197Z,99907.16
2022-12-16T10:37:24.391Z,99910.69
2022-12-16T10:40:54.753Z,99908.94
2022-12-16T10:44:19.775Z,99907.22
2022-12-16T10:47:45.436Z,99908.13
2022-12-16T10:51:06.853Z,99904.59
2022-12-16T10:54:44.108Z,99901.94
2022-12-16T10:58:18.021Z,99909.03
2022-12-16T11:01:50.911Z,99916.09
2022-12-16T11:05:11.385Z,99910.81
2022-12-16T11:08:46.011Z,99898.41
2022-12-16T11:12:06.252Z,99915.22
2022-12-16T11:15:42.503Z,99910.78
2022-12-16T11:19:15.161Z,99911.66
2022-12-16T11:22:42.670Z,99911.63
2022-12-16T11:26:04.106Z,99902.72
2022-12-16T11:29:36.382Z,99901.81
2022-12-16T11:32:59.883Z,99899.16
2022-12-16T11:36:28.739Z,99910.63
2022-12-16T11:39:50.879Z,99856.75
2022-12-16T11:43:17.232Z,99916.88
2022-12-16T11:46:43.847Z,99885.97
2022-12-16T11:50:04.223Z,99931.06
2022-12-16T11:53:44.517Z,99927.53
2022-12-16T11:57:05.474Z,99938.16
2022-12-16T12:00:33.780Z,99940.78
2022-12-16T12:04:07.574Z,99938.13
2022-12-16T12:07:45.762Z,99926.66
2022-12-16T12:11:36.296Z,99941.66
2022-12-16T12:15:05.593Z,99927.50
2022-12-16T12:18:38.196Z,99947.81
2022-12-16T12:22:08.780Z,99952.28
2022-12-16T12:25:39.145Z,99954.06
2022-12-16T12:29:06.585Z,99956.75
2022-12-16T12:32:43.907Z,99956.72
2022-12-16T12:36:16.658Z,99959.41
2022-12-16T12:39:44.433Z,99973.56
2022-12-16T12:43:08.566Z,99980.66
2022-12-16T12:46:37.505Z,99979.78
2022-12-16T12:50:02.441Z,99979.78
2022-12-16T12:53:33.561Z,99983.31
2022-12-16T12:57:07.664Z,99992.13
2022-12-16T13:00:35.351Z,99984.97
2022-12-16T13:04:16.381Z,99986.66
2022-12-16T13:07:37.335Z,99989.22
2022-12-16T13:10:58.933Z,99995.31
2022-12-16T13:14:19.824Z,99990.78
2022-12-16T13:17:41.747Z,99993.34
2022-12-16T13:21:08.595Z,99995.06
2022-12-16T13:24:43.697Z,99975.56
2022-12-16T13:28:11.562Z,99989.63
2022-12-16T13:31:32.725Z,100000.34
2022-12-16T13:34:52.981Z,100004.84
2022-12-16T13:38:15.816Z,100005.81
2022-12-16T13:42:23.086Z,100011.19
2022-12-16T13:46:02.942Z,100015.69
2022-12-16T13:50:04.027Z,100029.88
2022-12-16T13:53:34.771Z,100028.97
2022-12-16T13:57:07.879Z,100034.25
2022-12-16T14:00:36.961Z,100043.97
2022-12-16T14:04:05.915Z,100046.63
2022-12-16T14:07:29.159Z,100044.81
2022-12-16T14:10:51.877Z,100059.81
2022-12-16T14:14:19.848Z,100058.91
2022-12-16T14:17:47.308Z,100061.53
2022-12-16T14:21:14.628Z,100063.25
2022-12-16T14:24:42.857Z,100070.34
2022-12-16T14:28:03.127Z,100080.09
2022-12-16T14:31:37.588Z,100077.44
2022-12-16T14:35:02.363Z,100075.63
2022-12-16T14:38:43.533Z,100088.06
2022-12-16T14:42:14.269Z,100094.28
2022-12-16T14:45:46.877Z,100094.28
2022-12-16T14:49:10.139Z,100097.84
2022-12-16T14:52:38.774Z,100100.53
2022-12-16T14:56:00.186Z,100108.47
2022-12-16T14:59:43.164Z,100100.53
2022-12-16T15:03:12.320Z,100111.19
2022-12-16T15:06:42.599Z,100114.75
2022-12-16T15:10:09.054Z,100128.94
2022-12-16T15:13:36.210Z,100136.97
2022-12-16T15:16:57.326Z,100143.19
2022-12-16T15:20:36.988Z,100144.13
2022-12-16T15:24:04.133Z,100131.72
2022-12-16T15:27:45.402Z,100140.59
2022-12-16T15:31:13.186Z,100157.47
2022-12-16T15:38:52.896Z,100168.13
2022-12-16T15:42:13.964Z,100175.22
2022-12-16T15:45:36.771Z,100182.31
2022-12-16T15:49:02.504Z,100180.53
2022-12-16T15:52:47.305Z,100190.31
2022-12-16T15:56:15.434Z,100193.88
2022-12-16T15:59:43.946Z,100211.63
2022-12-16T16:03:07.035Z,100201.91
2022-12-16T16:06:46.105Z,100213.47
2022-12-16T16:10:06.483Z,100215.25
2022-12-16T16:13:27.279Z,100220.59
2022-12-16T16:16:48.744Z,100223.28
2022-12-16T16:20:09.015Z,100233.91
2022-12-16T16:23:41.303Z,100241.00
2022-12-16T16:27:07.629Z,100241.88
2022-12-16T16:30:29.241Z,100240.13
2022-12-16T16:33:49.920Z,100197.59
2022-12-16T16:37:14.634Z,100249.00
2022-12-16T16:40:42.292Z,100254.31
2022-12-16T16:44:09.043Z,100265.81
2022-12-16T16:47:34.854Z,100268.50
2022-12-16T16:51:04.799Z,100271.16
2022-12-16T16:54:24.914Z,100279.97
2022-12-16T16:57:53.632Z,100277.31
2022-12-16T17:01:14.037Z,100281.72
2022-12-16T17:04:34.451Z,100292.38
2022-12-16T17:08:09.628Z,100296.78
2022-12-16T17:11:36.513Z,100294.09
2022-12-16T17:14:58.197Z,100294.09
2022-12-16T17:18:18.251Z,100302.06
2022-12-16T17:21:38.451Z,100299.41
2022-12-16T17:24:58.607Z,100305.56
2022-12-16T17:28:15.353Z,100312.63
2022-12-16T17:31:36.847Z,100314.38
2022-12-16T17:34:57.105Z,100317.84
2022-12-16T17:38:21.078Z,100324.88
2022-12-16T17:41:47.037Z,100330.16
2022-12-16T17:45:07.423Z,100331.00
2022-12-16T17:48:31.953Z,100338.91
2022-12-16T17:51:55.158Z,100347.69
2022-12-16T17:55:15.870Z,100360.00
2022-12-16T17:58:35.952Z,100364.38
2022-12-16T18:01:57.049Z,100358.16
2022-12-16T18:05:18.813Z,100366.03
2022-12-16T18:08:38.941Z,100375.69
2022-12-16T18:12:07.524Z,100380.13
2022-12-16T18:15:29.019Z,100379.25
2022-12-16T18:18:49.255Z,100385.41
2022-12-16T18:22:10.634Z,100386.22
2022-12-16T18:25:30.848Z,100398.56
2022-12-16T18:28:50.945Z,100395.81
2022-12-16T18:32:11.177Z,100409.00
2022-12-16T18:35:32.009Z,100403.63
2022-12-16T18:38:56.801Z,100407.06
2022-12-16T18:42:17.048Z,100417.63
2022-12-16T18:45:40.284Z,100422.88
2022-12-16T18:49:04.710Z,100422.81
2022-12-16T18:52:24.852Z,100433.31
2022-12-16T18:55:50.350Z,100433.31
2022-12-16T18:59:15.143Z,100449.13
2022-12-16T19:02:35.708Z,100454.34
2022-12-16T19:05:56.061Z,100458.66
2022-12-16T19:09:16.167Z,100466.59
2022-12-16T19:12:37.631Z,100471.78
2022-12-16T19:15:54.498Z,100480.56
2022-12-16T19:19:23.014Z,100484.91
2022-12-16T19:22:43.145Z,100488.44
2022-12-16T19:26:14.919Z,100494.50
2022-12-16T19:29:36.693Z,100497.13
2022-12-16T19:32:59.895Z,100481.94
2022-12-16T19:36:20.004Z,100505.84
2022-12-16T19:39:40.168Z,100511.97
2022-12-16T19:43:00.825Z,100527.78
2022-12-16T19:46:33.040Z,100531.16
2022-12-16T19:49:59.897Z,100533.81
2022-12-16T19:53:26.161Z,100535.47
2022-12-16T19:56:46.541Z,100538.06
2022-12-16T20:00:10.043Z,100542.41
2022-12-16T20:03:35.341Z,100546.75
2022-12-16T20:06:56.847Z,100559.03
2022-12-16T20:10:17.012Z,100560.72
2022-12-16T20:13:37.207Z,100566.84
2022-12-16T20:17:00.332Z,100546.28
2022-12-16T20:20:22.709Z,100572.84
2022-12-16T20:23:42.977Z,100578.06
2022-12-16T20:27:03.248Z,100579.75
2022-12-16T20:30:38.964Z,100593.91
2022-12-16T20:37:43.784Z,100600.91
2022-12-16T20:41:13.953Z,100598.22
2022-12-16T20:44:39.883Z,100605.22
2022-12-16T20:48:11.744Z,100605.25
2022-12-16T20:51:37.951Z,100609.66
2022-12-16T20:54:59.350Z,100615.06
2022-12-16T20:58:19.779Z,100625.63
2022-12-16T21:01:47.919Z,100626.38
2022-12-16T21:05:16.264Z,100641.13
2022-12-16T21:08:37.054Z,100650.56
2022-12-16T21:11:59.046Z,100654.81
2022-12-16T21:15:22.114Z,100662.59
2022-12-16T21:18:42.683Z,100668.59
2022-12-16T21:22:06.408Z,100664.91
2022-12-16T21:25:29.129Z,100675.34
2022-12-16T21:28:56.853Z,100679.63
2022-12-16T21:32:18.295Z,100678.56
2022-12-16T21:35:38.859Z,100681.97
2022-12-16T21:39:01.085Z,100681.88
2022-12-16T21:42:24.441Z,100697.59
2022-12-16T21:45:45.930Z,100707.22
2022-12-16T21:49:06.091Z,100695.84
2022-12-16T21:52:22.742Z,100695.72
2022-12-16T21:55:42.993Z,100703.63
2022-12-16T21:59:03.127Z,100704.47
2022-12-16T22:02:30.084Z,100714.91
2022-12-16T22:05:46.783Z,100718.47
2022-12-16T22:09:07.102Z,100724.66
2022-12-16T22:12:31.106Z,100725.63
2022-12-16T22:15:51.741Z,100731.13
2022-12-16T22:19:14.093Z,100736.63
2022-12-16T22:22:42.588Z,100743.97
2022-12-16T22:26:04.106Z,100738.56
2022-12-16T22:29:33.451Z,100758.47
2022-12-16T22:32:53.234Z,100762.75
2022-12-16T22:36:33.269Z,100764.25
2022-12-16T22:39:56.235Z,100763.97
2022-12-16T22:43:25.018Z,100772.59
2022-12-16T22:46:45.251Z,100775.38
2022-12-16T22:50:08.361Z,100770.75
2022-12-16T22:53:33.244Z,100794.47
2022-12-16T22:56:56.622Z,100790.84
2022-12-16T23:00:17.011Z,100799.56
2022-12-16T23:03:40.454Z,100803.00
2022-12-16T23:07:00.826Z,100811.81
2022-12-16T23:10:23.191Z,100801.19
2022-12-16T23:13:59.146Z,100810.75
2022-12-16T23:17:20.274Z,100814.22
2022-12-16T23:20:40.766Z,100817.81
2022-12-16T23:24:06.279Z,100815.19
2022-12-16T23:27:27.719Z,100821.41
2022-12-16T23:30:51.062Z,100832.97
2022-12-16T23:34:19.241Z,100830.34
2022-12-16T23:37:39.598Z,100831.22
2022-12-16T23:41:00.047Z,100829.53
2022-12-16T23:44:31.146Z,100834.72
2022-12-16T23:48:02.003Z,100839.78
2022-12-16T23:51:22.400Z,100845.63
2022-12-16T23:54:47.812Z,100840.06
2022-12-16T23:58:16.366Z,100851.34
